Time;durP1;ratioP1;P1;durP2;ratioP2;P2;SDS_P1;SDS_P2;PMS_P1;PMS_P2;Temp;Humidity;BMP_temperature;BMP_pressure;BME280_temperature;BME280_humidity;BME280_pressure;Samples;Min_cycle;Max_cycle;Signal;HPM_P1;HPM_P2
2023/05/23 00:01:42;;;;;;;5.93;5.50;;;;;;;-144.30;95.94;85563.41;5070853;28;20200;-60
2023/05/23 00:04:09;;;;;;;5.63;5.23;;;;;;;-144.30;95.29;85539.56;5070430;28;20224;-58
2023/05/23 00:06:37;;;;;;;6.40;5.77;;;;;;;-144.30;94.73;85551.50;5070778;28;20261;-58
2023/05/23 00:09:04;;;;;;;5.60;5.20;;;;;;;-144.30;94.51;85563.41;5070890;28;20207;-58
2023/05/23 00:11:32;;;;;;;5.63;5.13;;;;;;;-144.30;94.92;85579.31;5070404;28;20286;-53
2023/05/23 00:14:01;;;;;;;6.97;5.27;;;;;;;-144.30;94.90;85561.44;5070280;28;20634;-52
2023/05/23 00:16:28;;;;;;;6.97;5.20;;;;;;;-144.30;94.92;85557.47;5070101;28;20200;-52
2023/05/23 00:18:56;;;;;;;6.53;5.50;;;;;;;-144.30;95.20;85599.22;5070212;28;20200;-59
2023/05/23 00:21:24;;;;;;;5.93;5.53;;;;;;;-144.30;95.50;85607.16;5070230;28;20286;-53
2023/05/23 00:23:52;;;;;;;5.50;5.10;;;;;;;-144.30;95.72;85603.19;5070047;28;20219;-59
2023/05/23 00:26:20;;;;;;;5.83;5.17;;;;;;;-144.30;95.30;85591.25;5070017;28;20687;-60
2023/05/23 00:28:48;;;;;;;5.70;5.20;;;;;;;-144.30;95.23;85607.16;5070141;28;20275;-60
2023/05/23 00:31:16;;;;;;;5.37;5.07;;;;;;;-144.30;95.78;85551.50;5070049;28;20206;-53
2023/05/23 00:33:43;;;;;;;6.57;5.13;;;;;;;-144.30;95.40;85599.22;5070325;28;20636;-59
2023/05/23 00:36:10;;;;;;;5.40;5.00;;;;;;;-144.30;95.58;85593.25;5070335;28;20578;-59
2023/05/23 00:38:38;;;;;;;5.37;4.73;;;;;;;-144.30;95.61;85611.13;5070112;28;20200;-59
2023/05/23 00:41:05;;;;;;;5.33;4.83;;;;;;;-144.30;95.99;85607.16;5069912;28;20238;-59
2023/05/23 00:43:32;;;;;;;5.27;4.87;;;;;;;-144.30;95.82;85638.97;5069002;28;20234;-58
2023/05/23 00:46:00;;;;;;;6.40;5.13;;;;;;;-144.30;96.44;85627.03;5069249;28;20196;-59
2023/05/23 00:48:28;;;;;;;4.73;4.30;;;;;;;-144.30;97.19;85625.06;5069291;28;20200;-52
2023/05/23 00:50:55;;;;;;;4.70;4.40;;;;;;;-144.30;97.21;85646.91;5069184;28;20220;-52
2023/05/23 00:53:22;;;;;;;5.87;5.30;;;;;;;-144.30;97.50;85642.94;5070133;28;20192;-52
2023/05/23 00:55:50;;;;;;;7.70;4.90;;;;;;;-144.30;97.52;85613.13;5070503;28;20206;-52
2023/05/23 00:58:17;;;;;;;4.80;4.30;;;;;;;-144.30;98.05;85627.03;5069922;28;20192;-53
2023/05/23 01:00:45;;;;;;;4.57;4.27;;;;;;;-144.30;98.09;85636.97;5069991;28;20214;-52
2023/05/23 01:03:16;;;;;;;4.97;4.57;;;;;;;-144.30;98.14;85646.91;5069767;28;20271;-52
2023/05/23 01:05:44;;;;;;;5.27;4.63;;;;;;;-144.30;97.94;85640.97;5069938;28;20222;-59
2023/05/23 01:08:11;;;;;;;4.30;3.90;;;;;;;-144.30;98.10;85635.00;5070333;28;20656;-59
2023/05/23 01:10:38;;;;;;;4.80;4.40;;;;;;;-144.30;97.86;85631.03;5069874;28;20209;-53
2023/05/23 01:13:16;;;;;;;6.17;4.63;;;;;;;-144.30;98.11;85573.38;5070059;28;20192;-53
2023/05/23 01:15:50;;;;;;;5.00;4.50;;;;;;;-144.30;98.09;85623.06;5069681;28;20615;-53
2023/05/23 01:18:32;;;;;;;5.20;4.47;;;;;;;-144.30;98.02;85625.06;5071520;28;20694;-53
2023/05/23 01:21:03;;;;;;;4.60;4.20;;;;;;;-144.30;97.68;85644.94;5073672;28;20207;-53
2023/05/23 01:23:56;;;;;;;5.27;4.67;;;;;;;-144.30;97.38;85635.00;5073648;28;20623;-53
2023/05/23 01:26:41;;;;;;;6.73;4.10;;;;;;;-144.30;97.17;85635.00;5073650;28;20196;-53
2023/05/23 01:29:13;;;;;;;8.07;4.57;;;;;;;-144.30;96.95;85648.91;5073622;28;20207;-52
2023/05/23 01:31:44;;;;;;;5.40;4.17;;;;;;;-144.30;97.06;85625.06;5073538;28;20726;-52
2023/05/23 01:34:12;;;;;;;4.73;4.43;;;;;;;-144.30;97.03;85621.06;5073630;28;20188;-53
2023/05/23 01:36:42;;;;;;;5.17;4.37;;;;;;;-144.30;97.66;85603.19;5073678;28;20726;-60
2023/05/23 01:39:10;;;;;;;6.77;4.73;;;;;;;-144.30;97.26;85613.13;5073806;28;20192;-60
2023/05/23 01:41:37;;;;;;;6.67;5.17;;;;;;;-144.30;97.20;85650.91;5073285;28;20287;-60
2023/05/23 01:44:05;;;;;;;5.50;5.10;;;;;;;-144.30;97.02;85633.00;5072957;28;20215;-60
2023/05/23 01:46:35;;;;;;;5.77;5.00;;;;;;;-144.30;97.28;85674.75;5073136;28;20258;-59
2023/05/23 01:49:05;;;;;;;5.60;5.20;;;;;;;-144.30;97.41;85666.81;5073098;28;20259;-59
2023/05/23 01:51:32;;;;;;;6.33;5.00;;;;;;;-144.30;97.68;85696.63;5073077;28;20234;-52
2023/05/23 01:54:00;;;;;;;5.00;4.60;;;;;;;-144.30;97.92;85670.78;5073140;28;20188;-52
2023/05/23 01:56:27;;;;;;;5.33;4.93;;;;;;;-144.30;96.84;85662.81;5072866;28;20196;-52
2023/05/23 01:58:54;;;;;;;4.53;4.23;;;;;;;-144.30;97.11;85682.72;5072875;28;20218;-52
2023/05/23 02:01:22;;;;;;;5.37;5.00;;;;;;;-144.30;97.80;85688.66;5073095;28;20606;-52
2023/05/23 02:03:50;;;;;;;5.47;5.07;;;;;;;-144.30;97.07;85666.81;5072713;28;20226;-52
2023/05/23 02:06:17;;;;;;;4.77;4.30;;;;;;;-144.30;96.68;85700.59;5072904;28;20695;-53
2023/05/23 02:08:44;;;;;;;4.20;3.90;;;;;;;-144.30;96.59;85652.88;5073002;28;20192;-52
2023/05/23 02:11:11;;;;;;;5.07;4.50;;;;;;;-144.30;96.27;85670.78;5072805;28;20203;-52
2023/05/23 02:13:38;;;;;;;5.00;4.60;;;;;;;-144.30;96.21;85662.81;5072466;28;20275;-59
2023/05/23 02:16:06;;;;;;;6.23;4.40;;;;;;;-144.30;96.24;85652.88;5072813;28;20401;-59
2023/05/23 02:18:33;;;;;;;5.00;4.70;;;;;;;-144.30;96.24;85682.72;5072572;28;20278;-59
2023/05/23 02:21:01;;;;;;;5.33;4.93;;;;;;;-144.30;96.29;85631.03;5072636;28;20207;-53
2023/05/23 02:23:28;;;;;;;4.83;4.50;;;;;;;-144.30;95.72;85666.81;5072442;28;20223;-52
2023/05/23 02:25:55;;;;;;;4.60;4.20;;;;;;;-144.30;95.34;85664.81;5072499;28;20282;-52
2023/05/23 02:28:22;;;;;;;4.60;4.30;;;;;;;-144.30;95.71;85704.56;5072451;28;20234;-52
2023/05/23 02:30:49;;;;;;;4.90;4.50;;;;;;;-144.30;95.31;85670.78;5071315;28;20206;-53
2023/05/23 02:33:16;;;;;;;5.10;4.07;;;;;;;-144.30;95.47;85700.59;5072545;28;20196;-52
2023/05/23 02:35:43;;;;;;;4.80;4.50;;;;;;;-144.30;94.97;85692.66;5072438;28;20203;-53
2023/05/23 02:38:11;;;;;;;4.47;4.17;;;;;;;-144.30;95.33;85730.41;5072143;28;20668;-53
2023/05/23 02:40:38;;;;;;;5.17;4.63;;;;;;;-144.30;95.20;85714.53;5072433;28;20698;-59
2023/05/23 02:43:05;;;;;;;4.57;4.27;;;;;;;-144.30;95.25;85694.63;5072432;28;20199;-59
2023/05/23 02:45:32;;;;;;;4.63;4.30;;;;;;;-144.30;95.21;85718.50;5072128;28;20196;-59
2023/05/23 02:47:59;;;;;;;6.27;4.80;;;;;;;-144.30;95.60;85698.63;5072036;28;20196;-59
2023/05/23 02:50:26;;;;;;;5.07;4.67;;;;;;;-144.30;95.55;85714.53;5072014;28;20648;-59
2023/05/23 02:52:53;;;;;;;4.83;4.43;;;;;;;-144.30;95.20;85718.50;5071663;28;20702;-59
2023/05/23 02:55:21;;;;;;;5.80;5.20;;;;;;;-144.30;95.57;85750.31;5072072;28;20573;-59
2023/05/23 02:57:48;;;;;;;5.83;4.93;;;;;;;-144.30;95.11;85714.53;5072108;28;20203;-58
2023/05/23 03:00:16;;;;;;;6.73;5.03;;;;;;;-144.30;95.14;85718.50;5071696;28;20200;-59
2023/05/23 03:02:43;;;;;;;5.00;4.70;;;;;;;-144.30;95.52;85706.56;5071594;28;20219;-59
2023/05/23 03:05:10;;;;;;;5.07;4.67;;;;;;;-144.30;94.79;85702.59;5071571;28;20230;-59
2023/05/23 03:07:36;;;;;;;5.47;4.97;;;;;;;-144.30;94.82;85692.66;5071528;28;20243;-59
2023/05/23 03:10:04;;;;;;;5.27;4.97;;;;;;;-144.30;94.28;85704.56;5071374;28;20196;-59
2023/05/23 03:12:32;;;;;;;4.47;4.13;;;;;;;-144.30;93.73;85666.81;5071595;28;20196;-59
2023/05/23 03:14:59;;;;;;;6.23;4.53;;;;;;;-144.30;93.45;85712.53;5071228;28;20232;-58
2023/05/23 03:17:26;;;;;;;7.83;4.50;;;;;;;-144.30;93.00;85710.53;5071431;28;20196;-59
2023/05/23 03:19:53;;;;;;;5.63;4.27;;;;;;;-144.30;92.99;85690.66;5071291;28;20200;-58
2023/05/23 03:22:19;;;;;;;5.10;4.70;;;;;;;-144.30;92.66;85633.00;5071888;28;20206;-59
2023/05/23 03:24:46;;;;;;;5.00;4.60;;;;;;;-144.30;92.91;85656.88;5071505;28;20314;-51
2023/05/23 03:27:13;;;;;;;5.03;4.63;;;;;;;-144.30;92.70;85666.81;5071402;28;20196;-58
2023/05/23 03:29:41;;;;;;;5.20;4.80;;;;;;;-144.30;92.69;85662.81;5071072;28;20294;-59
2023/05/23 03:32:08;;;;;;;5.57;4.80;;;;;;;-144.30;92.58;85676.75;5071258;28;20203;-58
2023/05/23 03:34:35;;;;;;;5.53;4.97;;;;;;;-144.30;92.76;85646.91;5070163;28;20196;-59
2023/05/23 03:37:03;;;;;;;5.77;5.17;;;;;;;-144.30;92.45;85666.81;5067144;28;20195;-59
2023/05/23 03:39:29;;;;;;;5.90;5.13;;;;;;;-144.30;92.20;85650.91;5070912;28;20250;-59
2023/05/23 03:41:56;;;;;;;11.83;8.90;;;;;;;-144.30;92.15;85682.72;5070507;28;20200;-60
2023/05/23 03:44:23;;;;;;;8.63;6.70;;;;;;;-144.30;92.33;85688.66;5070930;28;20216;-52
2023/05/23 03:46:51;;;;;;;8.13;5.77;;;;;;;-144.30;92.36;85666.81;5070963;28;20196;-51
2023/05/23 03:49:18;;;;;;;6.10;5.70;;;;;;;-144.30;91.87;85682.72;5070703;28;20200;-52
2023/05/23 03:51:45;;;;;;;6.07;5.67;;;;;;;-144.30;92.13;85642.94;5070758;28;20200;-59
2023/05/23 03:54:12;;;;;;;14.20;6.17;;;;;;;-144.30;92.34;85674.75;5070910;28;20227;-59
2023/05/23 03:56:39;;;;;;;6.63;6.10;;;;;;;-144.30;91.87;85662.81;5069448;28;20203;-60
2023/05/23 03:59:06;;;;;;;6.70;6.20;;;;;;;-144.30;91.29;85609.16;5070222;28;20203;-53
2023/05/23 04:01:33;;;;;;;13.10;6.63;;;;;;;-144.30;89.70;85539.56;5070432;28;20211;-52
2023/05/23 04:04:01;;;;;;;6.47;5.90;;;;;;;-144.30;84.70;85428.25;5070482;28;20219;-54
2023/05/23 04:06:30;;;;;;;9.17;6.40;;;;;;;-144.30;80.60;85259.28;5070503;28;20199;-59
2023/05/23 04:08:57;;;;;;;6.57;6.03;;;;;;;-144.30;75.10;85122.09;5070498;28;20588;-51
2023/05/23 04:11:23;;;;;;;7.20;6.32;;;;;;;-144.30;70.29;84919.34;5070530;28;20200;-59
2023/05/23 04:13:52;;;;;;;8.85;5.55;;;;;;;-144.30;65.63;84758.38;5070331;28;20721;-59
2023/05/23 04:16:21;;;;;;;6.07;5.22;;;;;;;-144.30;60.81;84557.63;5059724;28;20285;-59
2023/05/23 04:18:49;;;;;;;9.13;5.53;;;;;;;-144.30;57.53;84378.75;5063724;28;20251;-57
2023/05/23 04:21:17;;;;;;;5.53;4.45;;;;;;;-144.30;55.12;84243.63;5066719;28;20285;-59
2023/05/23 04:23:46;;;;;;;4.60;4.30;;;;;;;-144.30;53.48;84186.00;5069332;28;20562;-59
2023/05/23 04:26:12;;;;;;;4.90;4.60;;;;;;;-144.30;52.21;84106.50;5068571;28;20208;-52
2023/05/23 04:28:39;;;;;;;4.55;4.15;;;;;;;-144.30;50.65;84031.00;5069615;28;20196;-54
2023/05/23 04:31:07;;;;;;;4.82;4.32;;;;;;;-144.30;48.78;83891.88;5063167;28;20698;-54
2023/05/23 04:33:36;;;;;;;7.25;4.00;;;;;;;-144.30;46.70;83788.56;5054129;28;20205;-52
2023/05/23 04:36:08;;;;;;;4.60;4.30;;;;;;;-144.30;44.96;83683.25;5050780;28;20197;-54
2023/05/23 04:38:37;;;;;;;7.80;4.00;;;;;;;-144.30;44.65;83691.19;5050352;28;20685;-53
2023/05/23 04:41:05;;;;;;;4.03;3.60;;;;;;;-144.30;44.45;83635.56;5049906;28;20219;-53
2023/05/23 04:43:33;;;;;;;6.07;4.22;;;;;;;-144.30;43.39;83536.22;5051032;28;20642;-54
2023/05/23 04:46:01;;;;;;;6.25;4.97;;;;;;;-144.30;42.51;83452.78;5050549;28;20727;-60
2023/05/23 04:48:30;;;;;;;4.25;4.05;;;;;;;-144.30;40.29;83214.38;5050825;28;20570;-60
2023/05/23 04:51:01;;;;;;;5.43;4.22;;;;;;;-144.30;38.59;83043.50;5059452;28;20212;-54
2023/05/23 04:53:27;;;;;;;5.68;5.07;;;;;;;-144.30;38.32;83055.44;5069169;28;20235;-57
2023/05/23 04:55:56;;;;;;;5.50;3.70;;;;;;;-144.30;37.66;82946.16;5056599;28;20223;-59
2023/05/23 04:58:23;;;;;;;4.72;4.28;;;;;;;-144.30;36.73;82852.81;5068004;28;20711;-53
2023/05/23 05:00:50;;;;;;;7.32;4.57;;;;;;;-144.30;36.34;82890.56;5058795;28;20232;-53
2023/05/23 05:03:16;;;;;;;5.40;4.10;;;;;;;-144.30;37.35;83470.66;5051619;28;20716;-51
2023/05/23 05:05:43;;;;;;;4.80;4.38;;;;;;;-144.30;38.59;83279.94;5049439;28;20246;-51
2023/05/23 05:08:13;;;;;;;4.05;3.80;;;;;;;-144.30;37.88;83234.22;5049204;28;20229;-53
2023/05/23 05:10:40;;;;;;;6.30;3.83;;;;;;;-144.30;38.10;83268.00;5049656;28;20228;-60
2023/05/23 05:13:09;;;;;;;4.10;3.88;;;;;;;-144.30;37.51;83077.28;5049574;28;20220;-54
2023/05/23 05:15:35;;;;;;;4.32;3.97;;;;;;;-144.30;36.76;82975.97;5049146;28;20232;-52
2023/05/23 05:18:02;;;;;;;6.05;5.50;;;;;;;-144.30;36.87;83023.66;5048667;28;20224;-53
2023/05/23 05:20:30;;;;;;;5.18;4.68;;;;;;;-144.30;37.38;83146.81;5049483;28;20619;-53
2023/05/23 05:22:57;;;;;;;4.97;4.68;;;;;;;-144.30;39.15;83514.38;5049266;28;20670;-53
2023/05/23 05:25:26;;;;;;;6.72;5.60;;;;;;;-144.30;41.06;83695.19;5049325;28;20233;-53
2023/05/23 05:27:53;;;;;;;6.53;5.80;;;;;;;-144.30;42.49;83822.34;5049211;28;20224;-53
2023/05/23 05:30:21;;;;;;;11.95;7.57;;;;;;;-144.30;44.54;84044.91;5049442;28;20232;-53
2023/05/23 05:32:48;;;;;;;7.55;7.00;;;;;;;-144.30;46.23;84162.16;5061695;28;20227;-53
2023/05/23 05:35:15;;;;;;;6.95;6.38;;;;;;;-144.30;47.93;84293.31;5069184;28;20255;-53
2023/05/23 05:37:42;;;;;;;7.93;6.20;;;;;;;-144.30;49.50;84331.06;5069217;28;20228;-53
2023/05/23 05:40:09;;;;;;;5.97;5.47;;;;;;;-144.30;51.28;84335.03;5069525;28;20728;-53
2023/05/23 05:42:36;;;;;;;7.50;6.78;;;;;;;-144.30;49.12;84172.06;5069102;28;20248;-52
2023/05/23 05:45:03;;;;;;;14.48;6.75;;;;;;;-144.30;47.23;84120.41;5069234;28;20228;-53
2023/05/23 05:47:32;;;;;;;9.27;6.07;;;;;;;-144.30;47.44;84144.25;5068621;28;20713;-54
2023/05/23 05:49:59;;;;;;;7.90;7.10;;;;;;;-144.30;48.32;84253.56;5069166;28;20222;-53
2023/05/23 05:52:25;;;;;;;7.70;6.10;;;;;;;-144.30;49.47;84303.25;5069206;28;20234;-52
2023/05/23 05:54:52;;;;;;;8.18;6.80;;;;;;;-144.30;49.71;84241.63;5068963;28;20224;-52
2023/05/23 05:57:19;;;;;;;10.85;5.85;;;;;;;-144.30;49.71;84243.63;5061990;28;20741;-53
2023/05/23 05:59:46;;;;;;;6.80;5.28;;;;;;;-144.30;48.90;84158.16;5056504;28;20215;-53
2023/05/23 06:02:13;;;;;;;7.20;4.97;;;;;;;-144.30;48.24;84191.94;5049183;28;20196;-53
2023/05/23 06:04:41;;;;;;;5.90;4.88;;;;;;;-144.30;48.53;84064.78;5051223;28;20615;-53
2023/05/23 06:07:08;;;;;;;8.20;5.63;;;;;;;-144.30;45.88;83895.88;5052910;28;20193;-52
2023/05/23 06:09:35;;;;;;;6.40;4.85;;;;;;;-144.30;43.46;83635.56;5052916;28;20720;-53
2023/05/23 06:12:02;;;;;;;6.85;5.03;;;;;;;-144.30;41.40;83420.97;5052703;28;20201;-52
2023/05/23 06:14:29;;;;;;;13.20;9.82;;;;;;;-144.30;40.10;83258.06;5052547;28;20232;-60
2023/05/23 06:16:56;;;;;;;6.32;4.80;;;;;;;-144.30;39.20;83140.84;5052413;28;20203;-60
2023/05/23 06:19:23;;;;;;;5.38;4.88;;;;;;;-144.30;38.08;83041.53;5052638;28;20209;-60
2023/05/23 06:21:51;;;;;;;7.65;5.10;;;;;;;-144.30;37.35;83017.69;5052548;28;20200;-60
2023/05/23 06:24:18;;;;;;;7.20;4.80;;;;;;;-144.30;37.92;83162.72;5052541;28;20672;-60
2023/05/23 06:26:45;;;;;;;5.18;4.68;;;;;;;-144.30;39.27;83341.50;5052813;28;20200;-60
2023/05/23 06:29:12;;;;;;;6.45;5.30;;;;;;;-144.30;40.49;83492.50;5052420;28;20197;-61
2023/05/23 06:31:39;;;;;;;5.45;4.88;;;;;;;-144.30;41.60;83655.44;5052011;28;20207;-60
2023/05/23 06:34:06;;;;;;;5.70;4.90;;;;;;;-144.30;42.65;83778.63;5052508;28;20222;-53
2023/05/23 06:36:33;;;;;;;6.38;5.57;;;;;;;-144.30;43.50;83885.94;5060588;28;20286;-53
2023/05/23 06:39:01;;;;;;;16.60;10.68;;;;;;;-144.30;44.42;83933.63;5055224;28;20210;-53
2023/05/23 06:41:28;;;;;;;8.70;6.57;;;;;;;-144.30;45.48;83987.28;5052397;28;20208;-54
2023/05/23 06:43:55;;;;;;;6.30;4.97;;;;;;;-144.30;45.68;83949.50;5051866;28;20212;-53
2023/05/23 06:46:22;;;;;;;5.47;4.80;;;;;;;-144.30;45.91;83997.22;5054130;28;20704;-52
2023/05/23 06:48:49;;;;;;;12.55;6.28;;;;;;;-144.30;45.80;83866.06;5060673;28;20208;-52
2023/05/23 06:51:16;;;;;;;8.93;5.22;;;;;;;-144.30;44.57;83645.50;5051913;28;20691;-53
2023/05/23 06:53:42;;;;;;;15.18;10.85;;;;;;;-144.30;42.88;83572.00;5053283;28;20711;-60
2023/05/23 06:56:11;;;;;;;10.80;9.70;;;;;;;-144.30;41.68;83409.06;5067781;28;20244;-60
2023/05/23 06:58:38;;;;;;;8.63;6.15;;;;;;;-144.30;40.72;83349.47;5061608;28;20227;-59
2023/05/23 07:01:05;;;;;;;7.75;6.10;;;;;;;-144.30;40.19;83258.06;5069956;28;20207;-59
2023/05/23 07:03:32;;;;;;;7.40;6.80;;;;;;;-144.30;40.16;83333.56;5071695;28;20660;-59
2023/05/23 07:05:59;;;;;;;8.55;5.53;;;;;;;-144.30;40.65;83365.34;5071217;28;20223;-53
2023/05/23 07:08:26;;;;;;;10.05;5.97;;;;;;;-144.30;40.50;83355.41;5071570;28;20206;-53
2023/05/23 07:10:53;;;;;;;7.28;6.60;;;;;;;-144.30;39.57;83134.91;5067640;28;20228;-53
2023/05/23 07:13:21;;;;;;;7.00;6.38;;;;;;;-144.30;39.28;83158.75;5070861;28;20273;-58
2023/05/23 07:15:48;;;;;;;6.63;6.00;;;;;;;-144.30;38.42;83057.41;5057909;28;20240;-53
2023/05/23 07:18:15;;;;;;;6.20;5.60;;;;;;;-144.30;38.42;83021.66;5068008;28;20224;-54
2023/05/23 07:20:42;;;;;;;7.30;4.97;;;;;;;-144.30;37.38;82926.31;5062025;28;20220;-55
2023/05/23 07:23:09;;;;;;;5.63;5.10;;;;;;;-144.30;37.29;82902.47;5052234;28;20618;-55
2023/05/23 07:25:36;;;;;;;10.32;5.40;;;;;;;-144.30;37.28;82952.13;5050563;28;20319;-59
2023/05/23 07:28:03;;;;;;;10.98;5.68;;;;;;;-144.30;37.69;82952.13;5051343;28;20238;-54
2023/05/23 07:30:31;;;;;;;7.47;6.40;;;;;;;-144.30;37.85;82993.84;5051103;28;20246;-54
2023/05/23 07:32:58;;;;;;;7.38;6.38;;;;;;;-144.30;38.46;82914.38;5050970;28;20212;-54
2023/05/23 07:35:25;;;;;;;10.45;7.43;;;;;;;-144.30;37.54;82892.53;5051113;28;20216;-54
2023/05/23 07:37:52;;;;;;;7.10;5.35;;;;;;;-144.30;36.92;82854.78;5059309;28;20224;-53
2023/05/23 07:40:19;;;;;;;11.65;4.78;;;;;;;-144.30;36.47;82860.75;5071050;28;20241;-54
2023/05/23 07:42:46;;;;;;;8.27;5.00;;;;;;;-144.30;36.50;82868.69;5070308;28;20615;-54
2023/05/23 07:45:13;;;;;;;4.85;4.45;;;;;;;-144.30;36.23;82707.81;5070745;28;20228;-54
2023/05/23 07:47:42;;;;;;;12.80;4.70;;;;;;;-144.30;35.95;82560.81;5070628;28;20199;-55
2023/05/23 07:50:09;;;;;;;4.93;4.63;;;;;;;-144.30;34.96;82566.78;5068984;28;20206;-60
2023/05/23 07:52:36;;;;;;;6.75;4.78;;;;;;;-144.30;34.68;82650.19;5068658;28;20201;-60
2023/05/23 07:55:03;;;;;;;5.45;4.82;;;;;;;-144.30;34.27;82316.50;5069591;28;20212;-60
2023/05/23 07:57:30;;;;;;;5.85;5.07;;;;;;;-144.30;33.55;82380.06;5071026;28;20268;-59
2023/05/23 07:59:57;;;;;;;7.72;4.88;;;;;;;-144.30;33.51;82439.66;5070582;28;20163;-54
2023/05/23 08:02:24;;;;;;;5.85;5.35;;;;;;;-144.30;33.70;82382.03;5070629;28;20214;-56
2023/05/23 08:04:53;;;;;;;10.68;5.93;;;;;;;-144.30;32.92;82334.38;5070728;28;20395;-59
2023/05/23 08:07:20;;;;;;;5.82;5.28;;;;;;;-144.30;32.60;82056.31;5070323;28;20191;-60
2023/05/23 08:09:47;;;;;;;7.78;5.35;;;;;;;-144.30;31.97;82115.91;5070304;28;20211;-60
2023/05/23 08:12:14;;;;;;;7.32;5.95;;;;;;;-144.30;32.10;82088.09;5070590;28;20601;-60
2023/05/23 08:14:41;;;;;;;4.75;4.38;;;;;;;-144.30;31.38;82080.16;5070356;28;20234;-59
2023/05/23 08:17:08;;;;;;;16.98;5.28;;;;;;;-144.30;31.61;82050.38;5070488;28;20283;-59
2023/05/23 08:19:35;;;;;;;7.13;4.88;;;;;;;-144.30;31.84;82177.47;5070473;28;20195;-60
2023/05/23 08:22:03;;;;;;;4.47;4.18;;;;;;;-144.30;30.78;82161.59;5070243;28;20206;-53
2023/05/23 08:24:30;;;;;;;5.25;4.38;;;;;;;-144.30;30.79;82076.19;5070357;28;20200;-59
2023/05/23 08:26:57;;;;;;;5.68;5.10;;;;;;;-144.30;31.00;82264.88;5069982;28;20318;-59
2023/05/23 08:29:24;;;;;;;5.57;5.05;;;;;;;-144.30;31.32;82481.34;5070339;28;20694;-59
2023/05/23 08:31:51;;;;;;;6.90;4.60;;;;;;;-144.30;31.66;82562.78;5070104;28;20192;-60
2023/05/23 08:34:18;;;;;;;7.32;4.22;;;;;;;-144.30;31.34;82546.91;5070182;28;20196;-54
2023/05/23 08:36:45;;;;;;;4.63;4.22;;;;;;;-144.30;31.53;82544.91;5069778;28;20191;-54
2023/05/23 08:39:13;;;;;;;8.23;4.15;;;;;;;-144.30;32.36;82646.22;5070472;28;20826;-54
2023/05/23 08:41:40;;;;;;;5.65;5.05;;;;;;;-144.30;32.58;82632.31;5070050;28;20242;-55
2023/05/23 08:44:07;;;;;;;5.60;4.50;;;;;;;-144.30;32.18;82705.81;5069986;28;20253;-55
2023/05/23 08:46:39;;;;;;;9.55;4.90;;;;;;;-144.30;32.72;82695.88;5069804;28;20226;-55
2023/05/23 08:49:07;;;;;;;4.88;4.43;;;;;;;-144.30;33.03;82634.31;5069494;28;20207;-56
2023/05/23 08:51:37;;;;;;;6.80;4.93;;;;;;;-144.30;32.45;82628.34;5069923;28;20206;-55
2023/05/23 08:54:08;;;;;;;6.18;4.68;;;;;;;-144.30;31.66;82721.69;5070082;28;20286;-54
2023/05/23 08:56:36;;;;;;;6.63;4.03;;;;;;;-144.30;31.94;82771.38;5070096;28;20649;-54
2023/05/23 08:59:05;;;;;;;5.22;4.28;;;;;;;-144.30;31.86;82767.38;5070252;28;20759;-61
2023/05/23 09:01:33;;;;;;;5.47;4.78;;;;;;;-144.30;32.22;82793.22;5070216;28;20690;-61
2023/05/23 09:04:03;;;;;;;6.55;4.40;;;;;;;-144.30;32.10;82809.09;5070112;28;20573;-59
2023/05/23 09:06:35;;;;;;;4.78;4.22;;;;;;;-144.30;31.62;82809.09;5069876;28;20255;-62
2023/05/23 09:09:02;;;;;;;5.35;4.95;;;;;;;-144.30;31.96;82813.06;5070136;28;20207;-60
2023/05/23 09:11:32;;;;;;;8.55;4.72;;;;;;;-144.30;31.83;82993.84;5069934;28;20728;-60
2023/05/23 09:14:02;;;;;;;5.05;4.28;;;;;;;-144.30;32.75;83172.66;5069651;28;20235;-58
2023/05/23 09:16:32;;;;;;;4.88;4.57;;;;;;;-144.30;33.19;83270.00;5069824;28;20257;-55
2023/05/23 09:18:59;;;;;;;6.88;4.72;;;;;;;-144.30;33.46;83254.09;5069727;28;20196;-54
2023/05/23 09:21:27;;;;;;;5.82;5.22;;;;;;;-144.30;33.82;83295.81;5070112;28;20650;-63
2023/05/23 09:23:55;;;;;;;5.65;5.25;;;;;;;-144.30;34.52;83542.19;5069631;28;20196;-55
2023/05/23 09:26:22;;;;;;;5.30;4.80;;;;;;;-144.30;34.47;83381.25;5069653;28;20819;-60
2023/05/23 09:28:49;;;;;;;4.68;4.28;;;;;;;-144.30;33.84;83464.69;5069510;28;20199;-60
2023/05/23 09:31:18;;;;;;;6.53;5.13;;;;;;;-144.30;34.83;83464.69;5069618;28;20202;-60
2023/05/23 09:33:47;;;;;;;4.95;4.32;;;;;;;-144.30;35.17;83524.31;5069980;28;20586;-60
2023/05/23 09:36:14;;;;;;;9.10;4.88;;;;;;;-144.30;35.66;83526.28;5069888;28;20617;-60
2023/05/23 09:38:42;;;;;;;5.55;4.90;;;;;;;-144.30;35.45;83629.59;5070285;28;20203;-60
2023/05/23 09:41:11;;;;;;;5.32;4.93;;;;;;;-144.30;36.07;83724.97;5073246;28;20240;-60
2023/05/23 09:43:38;;;;;;;5.88;4.90;;;;;;;-144.30;36.21;83609.75;5073798;28;20267;-60
2023/05/23 09:46:08;;;;;;;4.97;4.68;;;;;;;-144.30;36.62;83701.13;5072859;28;20215;-61
2023/05/23 09:48:37;;;;;;;5.25;4.85;;;;;;;-144.30;36.79;83728.97;5073490;28;20647;-61
2023/05/23 09:51:05;;;;;;;5.32;4.82;;;;;;;-144.30;36.63;83810.41;5073231;28;20202;-55
2023/05/23 09:53:32;;;;;;;4.50;4.10;;;;;;;-144.30;36.12;83772.66;5073176;28;20277;-53
2023/05/23 09:55:59;;;;;;;4.97;4.43;;;;;;;-144.30;35.85;83768.69;5072961;28;20196;-53
2023/05/23 09:58:29;;;;;;;5.40;4.60;;;;;;;-144.30;36.10;83798.50;5073173;28;20350;-54
2023/05/23 10:00:59;;;;;;;4.97;4.57;;;;;;;-144.30;35.83;83784.59;5073168;28;20199;-55
2023/05/23 10:03:33;;;;;;;6.00;4.80;;;;;;;-144.30;36.14;83740.88;5065744;28;20202;-54
2023/05/23 10:06:08;;;;;;;4.72;4.32;;;;;;;-144.30;35.73;83667.34;5072037;28;20691;-54
2023/05/23 10:08:38;;;;;;;5.25;4.95;;;;;;;-144.30;35.39;83661.41;5071611;28;20578;-59
2023/05/23 10:11:50;;;;;;;5.40;4.55;;;;;;;-144.30;35.66;83635.56;5069549;28;20581;-59
2023/05/23 10:14:18;;;;;;;5.20;4.70;;;;;;;-144.30;35.47;83625.63;5069040;28;20572;-59
2023/05/23 10:16:55;;;;;;;5.07;4.63;;;;;;;-144.30;35.60;83593.84;5071326;28;20196;-59
2023/05/23 10:19:25;;;;;;;6.35;4.25;;;;;;;-144.30;35.20;83623.66;5069713;28;20266;-61
2023/05/23 10:21:59;;;;;;;4.43;4.20;;;;;;;-144.30;35.37;83635.56;5071470;28;20191;-53
2023/05/23 10:24:26;;;;;;;5.07;4.55;;;;;;;-144.30;35.44;83665.38;5071205;28;20207;-54
2023/05/23 10:26:54;;;;;;;5.05;4.53;;;;;;;-144.30;35.66;83649.47;5071565;28;20216;-55
2023/05/23 10:29:22;;;;;;;5.18;4.82;;;;;;;-144.30;35.98;83683.25;5070968;28;20199;-54
2023/05/23 10:31:50;;;;;;;4.90;4.60;;;;;;;-144.30;35.90;83695.19;5070987;28;20196;-60
2023/05/23 10:34:28;;;;;;;4.72;4.20;;;;;;;-144.30;36.03;83713.06;5071110;28;20204;-60
2023/05/23 10:37:01;;;;;;;5.47;4.68;;;;;;;-144.30;36.56;83770.69;5068488;28;20575;-60
2023/05/23 10:39:37;;;;;;;5.82;4.93;;;;;;;-144.30;36.87;83752.78;5071022;28;20589;-55
2023/05/23 10:42:16;;;;;;;4.60;4.35;;;;;;;-144.30;36.82;83707.09;5069683;28;20187;-54
2023/05/23 10:44:42;;;;;;;10.25;5.90;;;;;;;-144.30;37.23;83766.72;5069371;28;20192;-55
2023/05/23 10:47:11;;;;;;;6.90;5.95;;;;;;;-144.30;37.78;83774.66;5070427;28;20219;-55
2023/05/23 10:49:39;;;;;;;7.97;4.93;;;;;;;-144.30;37.69;83790.56;5070355;28;20199;-54
2023/05/23 10:52:09;;;;;;;5.20;4.57;;;;;;;-144.30;37.18;83774.66;5069788;28;20836;-54
2023/05/23 10:54:36;;;;;;;6.00;5.28;;;;;;;-144.30;37.35;83719.03;5068407;28;20211;-54
2023/05/23 10:57:03;;;;;;;5.95;5.53;;;;;;;-144.30;37.00;83675.31;5070924;28;20188;-60
2023/05/23 10:59:31;;;;;;;5.47;4.72;;;;;;;-144.30;36.44;83651.47;5070449;28;20203;-59
2023/05/23 11:02:00;;;;;;;6.20;4.78;;;;;;;-144.30;36.31;83707.09;5070356;28;20200;-54
2023/05/23 11:04:27;;;;;;;5.43;4.35;;;;;;;-144.30;36.40;83685.25;5070394;28;20520;-54
2023/05/23 11:06:55;;;;;;;4.47;4.13;;;;;;;-144.30;36.52;83617.69;5067688;28;20224;-54
2023/05/23 11:09:24;;;;;;;6.25;4.60;;;;;;;-144.30;36.55;83651.47;5070316;28;20192;-55
2023/05/23 11:12:05;;;;;;;5.97;5.28;;;;;;;-144.30;37.08;83591.84;5070459;28;20738;-55
2023/05/23 11:14:33;;;;;;;5.07;4.65;;;;;;;-144.30;37.52;83734.91;5070047;28;20245;-54
2023/05/23 11:17:01;;;;;;;5.07;4.50;;;;;;;-144.30;37.96;83776.66;5070132;28;20572;-54
2023/05/23 11:19:28;;;;;;;9.63;4.70;;;;;;;-144.30;38.12;83788.56;5070124;28;20307;-55
2023/05/23 11:21:58;;;;;;;7.25;4.85;;;;;;;-144.30;38.07;83758.75;5070048;28;20192;-55